sensor_id;sensor_type;location;lat;lon;timestamp;P1;durP1;ratioP1;P2;durP2;ratioP2
946;SDS011;460;48.734;9.152;2023-04-15T00:00:50;2.17;;;1.73;;
946;SDS011;460;48.734;9.152;2023-04-15T00:03:18;2.05;;;1.90;;
946;SDS011;460;48.734;9.152;2023-04-15T00:05:47;3.00;;;2.35;;
946;SDS011;460;48.734;9.152;2023-04-15T00:08:15;4.50;;;2.38;;
946;SDS011;460;48.734;9.152;2023-04-15T00:10:43;4.10;;;2.25;;
946;SDS011;460;48.734;9.152;2023-04-15T00:13:10;3.15;;;2.47;;
946;SDS011;460;48.734;9.152;2023-04-15T00:15:37;5.85;;;2.60;;
946;SDS011;460;48.734;9.152;2023-04-15T00:18:05;3.92;;;2.10;;
946;SDS011;460;48.734;9.152;2023-04-15T00:20:33;2.63;;;2.13;;
946;SDS011;460;48.734;9.152;2023-04-15T00:23:00;3.55;;;2.42;;
946;SDS011;460;48.734;9.152;2023-04-15T00:25:28;2.63;;;2.42;;
946;SDS011;460;48.734;9.152;2023-04-15T00:27:54;2.55;;;2.38;;
946;SDS011;460;48.734;9.152;2023-04-15T00:30:21;2.63;;;2.42;;
946;SDS011;460;48.734;9.152;2023-04-15T00:32:49;2.70;;;2.35;;
946;SDS011;460;48.734;9.152;2023-04-15T00:35:18;3.13;;;2.72;;
946;SDS011;460;48.734;9.152;2023-04-15T00:37:44;2.55;;;2.00;;
946;SDS011;460;48.734;9.152;2023-04-15T00:40:11;3.35;;;3.05;;
946;SDS011;460;48.734;9.152;2023-04-15T00:42:39;3.22;;;2.92;;
946;SDS011;460;48.734;9.152;2023-04-15T00:45:07;3.25;;;2.22;;
946;SDS011;460;48.734;9.152;2023-04-15T00:47:34;2.97;;;2.72;;
946;SDS011;460;48.734;9.152;2023-04-15T00:50:02;2.92;;;2.70;;
946;SDS011;460;48.734;9.152;2023-04-15T00:52:31;6.97;;;2.65;;
946;SDS011;460;48.734;9.152;2023-04-15T00:54:58;5.65;;;3.00;;
946;SDS011;460;48.734;9.152;2023-04-15T00:57:26;4.05;;;3.75;;
946;SDS011;460;48.734;9.152;2023-04-15T00:59:54;4.00;;;3.70;;
946;SDS011;460;48.734;9.152;2023-04-15T01:02:22;5.65;;;3.97;;
946;SDS011;460;48.734;9.152;2023-04-15T01:04:49;3.13;;;2.83;;
946;SDS011;460;48.734;9.152;2023-04-15T01:07:16;3.28;;;2.85;;
946;SDS011;460;48.734;9.152;2023-04-15T01:09:45;3.47;;;2.90;;
946;SDS011;460;48.734;9.152;2023-04-15T01:12:13;2.30;;;2.03;;
946;SDS011;460;48.734;9.152;2023-04-15T01:14:40;4.15;;;2.72;;
946;SDS011;460;48.734;9.152;2023-04-15T01:17:08;4.88;;;2.88;;
946;SDS011;460;48.734;9.152;2023-04-15T01:19:35;3.72;;;2.22;;
946;SDS011;460;48.734;9.152;2023-04-15T01:22:05;4.03;;;2.45;;
946;SDS011;460;48.734;9.152;2023-04-15T01:24:32;2.88;;;2.55;;
946;SDS011;460;48.734;9.152;2023-04-15T01:27:03;2.75;;;2.50;;
946;SDS011;460;48.734;9.152;2023-04-15T01:29:30;3.53;;;2.63;;
946;SDS011;460;48.734;9.152;2023-04-15T01:31:58;7.50;;;2.08;;
946;SDS011;460;48.734;9.152;2023-04-15T01:34:25;7.30;;;1.98;;
946;SDS011;460;48.734;9.152;2023-04-15T01:36:52;1.52;;;1.40;;
946;SDS011;460;48.734;9.152;2023-04-15T01:39:19;2.45;;;1.75;;
946;SDS011;460;48.734;9.152;2023-04-15T01:41:46;1.55;;;1.42;;
946;SDS011;460;48.734;9.152;2023-04-15T01:44:15;2.55;;;2.35;;
946;SDS011;460;48.734;9.152;2023-04-15T01:46:43;2.38;;;2.17;;
946;SDS011;460;48.734;9.152;2023-04-15T01:49:11;2.00;;;1.77;;
946;SDS011;460;48.734;9.152;2023-04-15T01:51:38;1.83;;;1.70;;
946;SDS011;460;48.734;9.152;2023-04-15T01:54:06;2.50;;;2.30;;
946;SDS011;460;48.734;9.152;2023-04-15T01:56:33;2.17;;;1.92;;
946;SDS011;460;48.734;9.152;2023-04-15T01:59:00;1.45;;;1.17;;
946;SDS011;460;48.734;9.152;2023-04-15T02:01:30;5.15;;;1.83;;
946;SDS011;460;48.734;9.152;2023-04-15T02:03:58;1.80;;;1.52;;
946;SDS011;460;48.734;9.152;2023-04-15T02:06:26;3.70;;;3.40;;
946;SDS011;460;48.734;9.152;2023-04-15T02:08:53;3.83;;;3.47;;
946;SDS011;460;48.734;9.152;2023-04-15T02:11:20;3.45;;;2.35;;
946;SDS011;460;48.734;9.152;2023-04-15T02:13:48;3.00;;;2.80;;
946;SDS011;460;48.734;9.152;2023-04-15T02:16:15;5.55;;;2.08;;
946;SDS011;460;48.734;9.152;2023-04-15T02:18:44;2.72;;;1.98;;
946;SDS011;460;48.734;9.152;2023-04-15T02:21:11;1.40;;;1.33;;
946;SDS011;460;48.734;9.152;2023-04-15T02:23:38;2.25;;;2.05;;
946;SDS011;460;48.734;9.152;2023-04-15T02:26:05;1.77;;;1.65;;
946;SDS011;460;48.734;9.152;2023-04-15T02:28:33;1.30;;;1.10;;
946;SDS011;460;48.734;9.152;2023-04-15T02:31:03;2.85;;;1.45;;
946;SDS011;460;48.734;9.152;2023-04-15T02:33:31;1.63;;;1.23;;
946;SDS011;460;48.734;9.152;2023-04-15T02:35:59;2.55;;;2.15;;
946;SDS011;460;48.734;9.152;2023-04-15T02:38:26;3.13;;;2.13;;
946;SDS011;460;48.734;9.152;2023-04-15T02:40:56;3.60;;;2.20;;
946;SDS011;460;48.734;9.152;2023-04-15T02:43:24;2.67;;;2.47;;
946;SDS011;460;48.734;9.152;2023-04-15T02:45:51;1.30;;;1.20;;
946;SDS011;460;48.734;9.152;2023-04-15T02:48:18;2.13;;;2.03;;
946;SDS011;460;48.734;9.152;2023-04-15T02:50:46;1.65;;;1.55;;
946;SDS011;460;48.734;9.152;2023-04-15T02:53:15;1.50;;;1.40;;
946;SDS011;460;48.734;9.152;2023-04-15T02:55:42;1.33;;;1.08;;
946;SDS011;460;48.734;9.152;2023-04-15T02:58:09;1.05;;;1.05;;
946;SDS011;460;48.734;9.152;2023-04-15T03:00:36;1.02;;;1.02;;
946;SDS011;460;48.734;9.152;2023-04-15T03:03:04;1.83;;;1.55;;
946;SDS011;460;48.734;9.152;2023-04-15T03:05:33;1.60;;;1.17;;
946;SDS011;460;48.734;9.152;2023-04-15T03:08:00;3.45;;;1.95;;
946;SDS011;460;48.734;9.152;2023-04-15T03:10:29;2.42;;;1.60;;
946;SDS011;460;48.734;9.152;2023-04-15T03:12:56;2.45;;;2.25;;
946;SDS011;460;48.734;9.152;2023-04-15T03:15:24;2.45;;;2.33;;
946;SDS011;460;48.734;9.152;2023-04-15T03:17:52;1.92;;;1.60;;
946;SDS011;460;48.734;9.152;2023-04-15T03:20:21;5.90;;;3.03;;
946;SDS011;460;48.734;9.152;2023-04-15T03:22:48;2.30;;;2.20;;
946;SDS011;460;48.734;9.152;2023-04-15T03:25:15;1.27;;;1.17;;
946;SDS011;460;48.734;9.152;2023-04-15T03:27:43;1.63;;;1.42;;
946;SDS011;460;48.734;9.152;2023-04-15T03:30:10;0.98;;;0.98;;
946;SDS011;460;48.734;9.152;2023-04-15T03:32:38;2.83;;;1.80;;
946;SDS011;460;48.734;9.152;2023-04-15T03:35:05;8.35;;;1.70;;
946;SDS011;460;48.734;9.152;2023-04-15T03:37:32;1.80;;;1.48;;
946;SDS011;460;48.734;9.152;2023-04-15T03:40:00;4.30;;;1.77;;
946;SDS011;460;48.734;9.152;2023-04-15T03:42:27;9.15;;;1.55;;
946;SDS011;460;48.734;9.152;2023-04-15T03:44:55;0.75;;;0.75;;
946;SDS011;460;48.734;9.152;2023-04-15T03:47:22;2.00;;;1.67;;
946;SDS011;460;48.734;9.152;2023-04-15T03:49:49;1.85;;;1.60;;
946;SDS011;460;48.734;9.152;2023-04-15T03:52:16;1.65;;;1.55;;
946;SDS011;460;48.734;9.152;2023-04-15T03:54:43;1.10;;;1.00;;
946;SDS011;460;48.734;9.152;2023-04-15T03:57:10;2.83;;;1.55;;
946;SDS011;460;48.734;9.152;2023-04-15T03:59:36;1.33;;;1.20;;
946;SDS011;460;48.734;9.152;2023-04-15T04:02:05;1.80;;;1.25;;
946;SDS011;460;48.734;9.152;2023-04-15T04:04:31;1.35;;;1.25;;
946;SDS011;460;48.734;9.152;2023-04-15T04:06:58;1.75;;;1.65;;
946;SDS011;460;48.734;9.152;2023-04-15T04:09:25;1.15;;;1.05;;
946;SDS011;460;48.734;9.152;2023-04-15T04:11:52;2.15;;;1.77;;
946;SDS011;460;48.734;9.152;2023-04-15T04:14:20;2.65;;;2.45;;
946;SDS011;460;48.734;9.152;2023-04-15T04:16:53;2.63;;;1.30;;
946;SDS011;460;48.734;9.152;2023-04-15T04:19:21;1.77;;;1.42;;
946;SDS011;460;48.734;9.152;2023-04-15T04:21:48;1.50;;;1.40;;
946;SDS011;460;48.734;9.152;2023-04-15T04:24:14;0.77;;;0.73;;
946;SDS011;460;48.734;9.152;2023-04-15T04:26:41;1.08;;;1.08;;
946;SDS011;460;48.734;9.152;2023-04-15T04:29:08;2.05;;;1.33;;
946;SDS011;460;48.734;9.152;2023-04-15T04:31:35;1.10;;;1.00;;
946;SDS011;460;48.734;9.152;2023-04-15T04:34:01;1.90;;;1.67;;
946;SDS011;460;48.734;9.152;2023-04-15T04:36:30;0.98;;;0.73;;
946;SDS011;460;48.734;9.152;2023-04-15T04:38:56;1.40;;;1.35;;
946;SDS011;460;48.734;9.152;2023-04-15T04:41:23;1.23;;;0.95;;
946;SDS011;460;48.734;9.152;2023-04-15T04:46:55;0.93;;;0.93;;
946;SDS011;460;48.734;9.152;2023-04-15T04:49:22;3.33;;;2.00;;
946;SDS011;460;48.734;9.152;2023-04-15T04:51:50;0.70;;;0.70;;
946;SDS011;460;48.734;9.152;2023-04-15T04:54:17;2.35;;;1.13;;
946;SDS011;460;48.734;9.152;2023-04-15T04:56:45;0.95;;;0.95;;
946;SDS011;460;48.734;9.152;2023-04-15T04:59:12;0.90;;;0.90;;
946;SDS011;460;48.734;9.152;2023-04-15T05:01:38;1.85;;;1.45;;
946;SDS011;460;48.734;9.152;2023-04-15T05:04:05;0.90;;;0.90;;
946;SDS011;460;48.734;9.152;2023-04-15T05:06:32;1.70;;;1.60;;
946;SDS011;460;48.734;9.152;2023-04-15T05:09:02;2.97;;;1.98;;
946;SDS011;460;48.734;9.152;2023-04-15T05:11:28;1.00;;;1.00;;
946;SDS011;460;48.734;9.152;2023-04-15T05:13:55;0.95;;;0.95;;
946;SDS011;460;48.734;9.152;2023-04-15T05:16:23;1.42;;;1.10;;
946;SDS011;460;48.734;9.152;2023-04-15T05:18:50;0.82;;;0.80;;
946;SDS011;460;48.734;9.152;2023-04-15T05:21:17;1.40;;;1.30;;
946;SDS011;460;48.734;9.152;2023-04-15T05:23:44;1.50;;;0.90;;
946;SDS011;460;48.734;9.152;2023-04-15T05:26:13;2.00;;;1.73;;
946;SDS011;460;48.734;9.152;2023-04-15T05:28:40;2.35;;;1.52;;
946;SDS011;460;48.734;9.152;2023-04-15T05:31:06;2.78;;;1.20;;
946;SDS011;460;48.734;9.152;2023-04-15T05:33:33;0.77;;;0.77;;
946;SDS011;460;48.734;9.152;2023-04-15T05:36:00;1.95;;;1.85;;
946;SDS011;460;48.734;9.152;2023-04-15T05:38:27;1.17;;;1.15;;
946;SDS011;460;48.734;9.152;2023-04-15T05:40:53;2.92;;;2.55;;
946;SDS011;460;48.734;9.152;2023-04-15T05:43:22;1.88;;;1.40;;
946;SDS011;460;48.734;9.152;2023-04-15T05:45:48;3.03;;;1.80;;
946;SDS011;460;48.734;9.152;2023-04-15T05:48:15;1.75;;;1.65;;
946;SDS011;460;48.734;9.152;2023-04-15T05:50:42;5.90;;;1.52;;
946;SDS011;460;48.734;9.152;2023-04-15T05:53:09;2.70;;;1.67;;
946;SDS011;460;48.734;9.152;2023-04-15T05:55:36;2.58;;;2.13;;
946;SDS011;460;48.734;9.152;2023-04-15T05:58:03;4.85;;;3.42;;
946;SDS011;460;48.734;9.152;2023-04-15T06:00:31;3.78;;;2.40;;
946;SDS011;460;48.734;9.152;2023-04-15T06:02:57;2.78;;;2.55;;
946;SDS011;460;48.734;9.152;2023-04-15T06:05:25;2.40;;;2.00;;
946;SDS011;460;48.734;9.152;2023-04-15T06:07:51;4.78;;;3.33;;
946;SDS011;460;48.734;9.152;2023-04-15T06:10:18;3.70;;;2.58;;
946;SDS011;460;48.734;9.152;2023-04-15T06:12:45;2.67;;;2.47;;
946;SDS011;460;48.734;9.152;2023-04-15T06:15:12;3.80;;;3.25;;
946;SDS011;460;48.734;9.152;2023-04-15T06:17:40;3.53;;;3.22;;
946;SDS011;460;48.734;9.152;2023-04-15T06:20:07;2.85;;;2.63;;
946;SDS011;460;48.734;9.152;2023-04-15T06:22:35;4.35;;;2.58;;
946;SDS011;460;48.734;9.152;2023-04-15T06:25:03;3.10;;;2.80;;
946;SDS011;460;48.734;9.152;2023-04-15T06:27:32;1.75;;;1.48;;
946;SDS011;460;48.734;9.152;2023-04-15T06:29:59;2.55;;;2.08;;
946;SDS011;460;48.734;9.152;2023-04-15T06:32:25;2.92;;;2.72;;
946;SDS011;460;48.734;9.152;2023-04-15T06:34:53;3.10;;;2.72;;
946;SDS011;460;48.734;9.152;2023-04-15T06:37:20;2.55;;;2.35;;
946;SDS011;460;48.734;9.152;2023-04-15T06:39:47;3.83;;;2.40;;
946;SDS011;460;48.734;9.152;2023-04-15T06:42:14;7.90;;;3.95;;
946;SDS011;460;48.734;9.152;2023-04-15T06:44:41;4.18;;;3.78;;
946;SDS011;460;48.734;9.152;2023-04-15T06:47:08;3.60;;;2.33;;
946;SDS011;460;48.734;9.152;2023-04-15T06:49:37;3.15;;;2.25;;
946;SDS011;460;48.734;9.152;2023-04-15T06:52:05;1.80;;;1.70;;
946;SDS011;460;48.734;9.152;2023-04-15T06:54:32;4.45;;;1.95;;
946;SDS011;460;48.734;9.152;2023-04-15T06:56:59;2.85;;;2.55;;
946;SDS011;460;48.734;9.152;2023-04-15T06:59:26;5.80;;;1.98;;
946;SDS011;460;48.734;9.152;2023-04-15T07:01:53;3.40;;;2.75;;
946;SDS011;460;48.734;9.152;2023-04-15T07:04:19;4.05;;;3.75;;
946;SDS011;460;48.734;9.152;2023-04-15T07:06:46;2.17;;;1.98;;
946;SDS011;460;48.734;9.152;2023-04-15T07:09:14;2.47;;;2.20;;
946;SDS011;460;48.734;9.152;2023-04-15T07:11:41;3.50;;;2.50;;
946;SDS011;460;48.734;9.152;2023-04-15T07:14:08;5.78;;;3.30;;
946;SDS011;460;48.734;9.152;2023-04-15T07:16:47;3.40;;;2.37;;
946;SDS011;460;48.734;9.152;2023-04-15T07:19:16;2.80;;;2.60;;
946;SDS011;460;48.734;9.152;2023-04-15T07:21:43;2.30;;;1.40;;
946;SDS011;460;48.734;9.152;2023-04-15T07:24:10;3.87;;;2.10;;
946;SDS011;460;48.734;9.152;2023-04-15T07:26:38;2.00;;;1.70;;
946;SDS011;460;48.734;9.152;2023-04-15T07:29:05;5.23;;;2.50;;
946;SDS011;460;48.734;9.152;2023-04-15T07:31:31;2.27;;;2.17;;
946;SDS011;460;48.734;9.152;2023-04-15T07:33:58;1.90;;;1.80;;
946;SDS011;460;48.734;9.152;2023-04-15T07:36:25;2.70;;;2.20;;
946;SDS011;460;48.734;9.152;2023-04-15T07:38:53;4.33;;;2.43;;
946;SDS011;460;48.734;9.152;2023-04-15T07:41:20;2.40;;;2.17;;
946;SDS011;460;48.734;9.152;2023-04-15T07:43:48;2.00;;;1.90;;
946;SDS011;460;48.734;9.152;2023-04-15T07:46:15;5.13;;;4.47;;
946;SDS011;460;48.734;9.152;2023-04-15T07:48:42;2.00;;;1.50;;
946;SDS011;460;48.734;9.152;2023-04-15T07:51:09;6.73;;;1.47;;
946;SDS011;460;48.734;9.152;2023-04-15T07:53:36;4.07;;;1.10;;
946;SDS011;460;48.734;9.152;2023-04-15T07:56:04;1.33;;;1.23;;
946;SDS011;460;48.734;9.152;2023-04-15T07:58:31;2.37;;;1.77;;
946;SDS011;460;48.734;9.152;2023-04-15T08:00:59;1.33;;;1.20;;
946;SDS011;460;48.734;9.152;2023-04-15T08:03:26;1.87;;;1.30;;
946;SDS011;460;48.734;9.152;2023-04-15T08:05:52;1.30;;;1.20;;
946;SDS011;460;48.734;9.152;2023-04-15T08:08:19;3.10;;;2.90;;
946;SDS011;460;48.734;9.152;2023-04-15T08:10:46;2.63;;;1.23;;
946;SDS011;460;48.734;9.152;2023-04-15T08:13:13;3.97;;;1.67;;
946;SDS011;460;48.734;9.152;2023-04-15T08:15:40;8.03;;;1.40;;
946;SDS011;460;48.734;9.152;2023-04-15T08:18:08;1.83;;;1.70;;
946;SDS011;460;48.734;9.152;2023-04-15T08:20:35;1.30;;;1.20;;
946;SDS011;460;48.734;9.152;2023-04-15T08:23:02;3.03;;;1.90;;
946;SDS011;460;48.734;9.152;2023-04-15T08:25:29;2.00;;;1.33;;
946;SDS011;460;48.734;9.152;2023-04-15T08:27:56;0.93;;;0.93;;
946;SDS011;460;48.734;9.152;2023-04-15T08:30:23;1.00;;;0.83;;
946;SDS011;460;48.734;9.152;2023-04-15T08:32:50;1.27;;;0.97;;
946;SDS011;460;48.734;9.152;2023-04-15T08:35:18;2.20;;;1.40;;
946;SDS011;460;48.734;9.152;2023-04-15T08:37:45;3.03;;;1.73;;
946;SDS011;460;48.734;9.152;2023-04-15T08:40:12;1.27;;;1.03;;
946;SDS011;460;48.734;9.152;2023-04-15T08:42:40;1.67;;;1.00;;
946;SDS011;460;48.734;9.152;2023-04-15T08:45:10;0.90;;;0.90;;
946;SDS011;460;48.734;9.152;2023-04-15T08:47:37;2.83;;;1.77;;
946;SDS011;460;48.734;9.152;2023-04-15T08:50:07;1.97;;;1.87;;
946;SDS011;460;48.734;9.152;2023-04-15T08:52:37;3.43;;;1.50;;
946;SDS011;460;48.734;9.152;2023-04-15T08:55:05;2.00;;;1.50;;
946;SDS011;460;48.734;9.152;2023-04-15T08:57:34;7.00;;;1.13;;
946;SDS011;460;48.734;9.152;2023-04-15T09:00:02;1.60;;;1.50;;
946;SDS011;460;48.734;9.152;2023-04-15T09:02:29;1.03;;;0.97;;
946;SDS011;460;48.734;9.152;2023-04-15T09:04:57;1.57;;;1.47;;
946;SDS011;460;48.734;9.152;2023-04-15T09:07:23;1.40;;;1.10;;
946;SDS011;460;48.734;9.152;2023-04-15T09:09:52;1.00;;;0.97;;
946;SDS011;460;48.734;9.152;2023-04-15T09:12:19;1.47;;;1.00;;
946;SDS011;460;48.734;9.152;2023-04-15T09:14:45;1.37;;;1.00;;
946;SDS011;460;48.734;9.152;2023-04-15T09:17:13;2.00;;;0.97;;
946;SDS011;460;48.734;9.152;2023-04-15T09:19:44;0.90;;;0.90;;
946;SDS011;460;48.734;9.152;2023-04-15T09:22:11;1.30;;;1.20;;
946;SDS011;460;48.734;9.152;2023-04-15T09:24:39;1.30;;;1.00;;
946;SDS011;460;48.734;9.152;2023-04-15T09:27:08;1.53;;;1.00;;
946;SDS011;460;48.734;9.152;2023-04-15T09:29:35;1.40;;;1.30;;
946;SDS011;460;48.734;9.152;2023-04-15T09:32:08;2.10;;;0.93;;
946;SDS011;460;48.734;9.152;2023-04-15T09:34:36;3.70;;;1.20;;
946;SDS011;460;48.734;9.152;2023-04-15T09:37:03;0.97;;;0.93;;
946;SDS011;460;48.734;9.152;2023-04-15T09:39:43;0.77;;;0.77;;
946;SDS011;460;48.734;9.152;2023-04-15T09:42:13;0.90;;;0.80;;
946;SDS011;460;48.734;9.152;2023-04-15T09:44:48;2.30;;;1.73;;
946;SDS011;460;48.734;9.152;2023-04-15T09:47:27;0.90;;;0.70;;
946;SDS011;460;48.734;9.152;2023-04-15T09:49:55;3.00;;;0.90;;
946;SDS011;460;48.734;9.152;2023-04-15T09:52:26;1.73;;;1.20;;
946;SDS011;460;48.734;9.152;2023-04-15T09:54:53;0.83;;;0.80;;
946;SDS011;460;48.734;9.152;2023-04-15T09:57:22;1.03;;;0.80;;
946;SDS011;460;48.734;9.152;2023-04-15T09:59:49;1.10;;;1.00;;
946;SDS011;460;48.734;9.152;2023-04-15T10:02:17;0.87;;;0.70;;
946;SDS011;460;48.734;9.152;2023-04-15T10:04:45;3.17;;;1.33;;
946;SDS011;460;48.734;9.152;2023-04-15T10:07:14;1.83;;;1.00;;
946;SDS011;460;48.734;9.152;2023-04-15T10:09:44;2.40;;;1.33;;
946;SDS011;460;48.734;9.152;2023-04-15T10:12:11;1.30;;;1.20;;
946;SDS011;460;48.734;9.152;2023-04-15T10:14:42;3.83;;;1.07;;
946;SDS011;460;48.734;9.152;2023-04-15T10:17:10;1.20;;;0.93;;
946;SDS011;460;48.734;9.152;2023-04-15T10:19:37;2.23;;;1.87;;
946;SDS011;460;48.734;9.152;2023-04-15T10:22:05;2.60;;;1.40;;
946;SDS011;460;48.734;9.152;2023-04-15T10:24:32;1.70;;;0.97;;
946;SDS011;460;48.734;9.152;2023-04-15T10:26:59;1.40;;;1.10;;
946;SDS011;460;48.734;9.152;2023-04-15T10:29:28;1.57;;;1.47;;
946;SDS011;460;48.734;9.152;2023-04-15T10:31:56;1.20;;;1.10;;
946;SDS011;460;48.734;9.152;2023-04-15T10:34:24;1.53;;;1.43;;
946;SDS011;460;48.734;9.152;2023-04-15T10:36:54;1.37;;;1.20;;
946;SDS011;460;48.734;9.152;2023-04-15T10:39:37;1.27;;;1.00;;
946;SDS011;460;48.734;9.152;2023-04-15T10:42:08;1.73;;;1.60;;
946;SDS011;460;48.734;9.152;2023-04-15T10:44:36;1.43;;;1.23;;
946;SDS011;460;48.734;9.152;2023-04-15T10:47:08;1.40;;;1.30;;
946;SDS011;460;48.734;9.152;2023-04-15T10:49:43;1.80;;;1.37;;
946;SDS011;460;48.734;9.152;2023-04-15T10:52:14;1.57;;;1.47;;
946;SDS011;460;48.734;9.152;2023-04-15T10:54:42;1.40;;;1.30;;
946;SDS011;460;48.734;9.152;2023-04-15T10:57:13;1.63;;;1.33;;
946;SDS011;460;48.734;9.152;2023-04-15T11:00:00;2.63;;;1.43;;
946;SDS011;460;48.734;9.152;2023-04-15T11:02:40;2.30;;;1.70;;
946;SDS011;460;48.734;9.152;2023-04-15T11:05:09;3.57;;;1.63;;
946;SDS011;460;48.734;9.152;2023-04-15T11:07:38;1.90;;;1.20;;
946;SDS011;460;48.734;9.152;2023-04-15T11:13:17;1.70;;;1.50;;
946;SDS011;460;48.734;9.152;2023-04-15T11:15:49;1.57;;;1.47;;
946;SDS011;460;48.734;9.152;2023-04-15T11:18:22;2.83;;;2.23;;
946;SDS011;460;48.734;9.152;2023-04-15T11:20:54;1.73;;;1.57;;
946;SDS011;460;48.734;9.152;2023-04-15T11:23:27;1.63;;;1.33;;
946;SDS011;460;48.734;9.152;2023-04-15T11:25:55;1.80;;;1.70;;
946;SDS011;460;48.734;9.152;2023-04-15T11:28:24;2.00;;;1.40;;
946;SDS011;460;48.734;9.152;2023-04-15T11:30:52;1.57;;;1.47;;
946;SDS011;460;48.734;9.152;2023-04-15T11:33:19;3.47;;;1.13;;
946;SDS011;460;48.734;9.152;2023-04-15T11:35:49;1.83;;;1.67;;
946;SDS011;460;48.734;9.152;2023-04-15T11:38:17;1.30;;;1.13;;
946;SDS011;460;48.734;9.152;2023-04-15T11:40:44;1.13;;;1.10;;
946;SDS011;460;48.734;9.152;2023-04-15T11:43:12;2.00;;;1.57;;
946;SDS011;460;48.734;9.152;2023-04-15T11:45:47;1.97;;;1.77;;
946;SDS011;460;48.734;9.152;2023-04-15T11:48:16;1.33;;;1.23;;
946;SDS011;460;48.734;9.152;2023-04-15T11:50:44;1.40;;;1.30;;
946;SDS011;460;48.734;9.152;2023-04-15T11:53:12;1.37;;;1.27;;
946;SDS011;460;48.734;9.152;2023-04-15T11:55:40;2.40;;;1.43;;
946;SDS011;460;48.734;9.152;2023-04-15T11:58:09;7.20;;;1.50;;
946;SDS011;460;48.734;9.152;2023-04-15T12:00:37;1.80;;;1.40;;
946;SDS011;460;48.734;9.152;2023-04-15T12:03:10;2.73;;;1.70;;
946;SDS011;460;48.734;9.152;2023-04-15T12:08:46;3.13;;;1.87;;
946;SDS011;460;48.734;9.152;2023-04-15T12:11:14;2.17;;;1.73;;
946;SDS011;460;48.734;9.152;2023-04-15T12:13:42;2.10;;;1.90;;
946;SDS011;460;48.734;9.152;2023-04-15T12:16:09;1.80;;;0.93;;
946;SDS011;460;48.734;9.152;2023-04-15T12:18:36;4.37;;;2.00;;
946;SDS011;460;48.734;9.152;2023-04-15T12:21:05;2.50;;;1.90;;
946;SDS011;460;48.734;9.152;2023-04-15T12:23:35;1.87;;;1.77;;
946;SDS011;460;48.734;9.152;2023-04-15T12:26:03;2.33;;;1.70;;
946;SDS011;460;48.734;9.152;2023-04-15T12:28:30;3.47;;;2.30;;
946;SDS011;460;48.734;9.152;2023-04-15T12:30:59;1.77;;;1.40;;
946;SDS011;460;48.734;9.152;2023-04-15T12:33:33;2.00;;;1.80;;
946;SDS011;460;48.734;9.152;2023-04-15T12:36:15;3.00;;;1.67;;
946;SDS011;460;48.734;9.152;2023-04-15T12:38:42;3.23;;;2.93;;
946;SDS011;460;48.734;9.152;2023-04-15T12:41:08;3.03;;;2.67;;
946;SDS011;460;48.734;9.152;2023-04-15T12:43:35;1.87;;;1.20;;
946;SDS011;460;48.734;9.152;2023-04-15T12:46:02;2.80;;;2.03;;
946;SDS011;460;48.734;9.152;2023-04-15T12:48:33;8.13;;;2.40;;
946;SDS011;460;48.734;9.152;2023-04-15T12:51:00;2.30;;;1.60;;
946;SDS011;460;48.734;9.152;2023-04-15T12:53:28;2.20;;;1.63;;
946;SDS011;460;48.734;9.152;2023-04-15T12:55:55;1.70;;;1.60;;
946;SDS011;460;48.734;9.152;2023-04-15T12:58:22;5.00;;;1.37;;
946;SDS011;460;48.734;9.152;2023-04-15T13:00:49;2.20;;;1.60;;
946;SDS011;460;48.734;9.152;2023-04-15T13:03:15;6.50;;;1.90;;
946;SDS011;460;48.734;9.152;2023-04-15T13:05:42;1.40;;;1.13;;
946;SDS011;460;48.734;9.152;2023-04-15T13:08:09;1.57;;;1.20;;
946;SDS011;460;48.734;9.152;2023-04-15T13:10:37;1.43;;;1.33;;
946;SDS011;460;48.734;9.152;2023-04-15T13:13:04;3.10;;;2.80;;
946;SDS011;460;48.734;9.152;2023-04-15T13:15:31;4.83;;;2.10;;
946;SDS011;460;48.734;9.152;2023-04-15T13:17:58;1.97;;;1.77;;
946;SDS011;460;48.734;9.152;2023-04-15T13:20:25;4.43;;;1.60;;
946;SDS011;460;48.734;9.152;2023-04-15T13:22:53;1.27;;;1.10;;
946;SDS011;460;48.734;9.152;2023-04-15T13:25:20;1.47;;;1.37;;
946;SDS011;460;48.734;9.152;2023-04-15T13:27:48;1.23;;;1.20;;
946;SDS011;460;48.734;9.152;2023-04-15T13:30:15;2.80;;;1.80;;
946;SDS011;460;48.734;9.152;2023-04-15T13:32:42;1.27;;;1.13;;
946;SDS011;460;48.734;9.152;2023-04-15T13:35:08;2.07;;;1.50;;
946;SDS011;460;48.734;9.152;2023-04-15T13:37:35;1.17;;;1.07;;
946;SDS011;460;48.734;9.152;2023-04-15T13:40:03;1.43;;;1.17;;
946;SDS011;460;48.734;9.152;2023-04-15T13:42:32;1.60;;;1.47;;
946;SDS011;460;48.734;9.152;2023-04-15T13:45:00;3.33;;;1.17;;
946;SDS011;460;48.734;9.152;2023-04-15T13:47:27;1.17;;;0.87;;
946;SDS011;460;48.734;9.152;2023-04-15T13:49:54;1.70;;;1.23;;
946;SDS011;460;48.734;9.152;2023-04-15T13:52:21;0.93;;;0.90;;
946;SDS011;460;48.734;9.152;2023-04-15T13:54:47;0.90;;;0.80;;
946;SDS011;460;48.734;9.152;2023-04-15T13:57:14;1.30;;;0.97;;
946;SDS011;460;48.734;9.152;2023-04-15T13:59:41;1.20;;;1.10;;
946;SDS011;460;48.734;9.152;2023-04-15T14:02:10;1.73;;;1.33;;
946;SDS011;460;48.734;9.152;2023-04-15T14:04:37;2.40;;;2.30;;
946;SDS011;460;48.734;9.152;2023-04-15T14:07:03;1.17;;;1.13;;
946;SDS011;460;48.734;9.152;2023-04-15T14:09:30;0.70;;;0.70;;
946;SDS011;460;48.734;9.152;2023-04-15T14:11:57;1.53;;;1.13;;
946;SDS011;460;48.734;9.152;2023-04-15T14:14:25;1.87;;;1.40;;
946;SDS011;460;48.734;9.152;2023-04-15T14:16:52;1.53;;;0.83;;
946;SDS011;460;48.734;9.152;2023-04-15T14:19:21;0.70;;;0.70;;
946;SDS011;460;48.734;9.152;2023-04-15T14:21:48;3.07;;;1.20;;
946;SDS011;460;48.734;9.152;2023-04-15T14:24:15;0.50;;;0.50;;
946;SDS011;460;48.734;9.152;2023-04-15T14:26:42;0.73;;;0.50;;
946;SDS011;460;48.734;9.152;2023-04-15T14:29:09;0.43;;;0.40;;
946;SDS011;460;48.734;9.152;2023-04-15T14:31:36;0.80;;;0.73;;
946;SDS011;460;48.734;9.152;2023-04-15T14:34:03;2.13;;;0.90;;
946;SDS011;460;48.734;9.152;2023-04-15T14:36:31;1.20;;;0.80;;
946;SDS011;460;48.734;9.152;2023-04-15T14:38:58;2.10;;;1.53;;
946;SDS011;460;48.734;9.152;2023-04-15T14:41:25;0.80;;;0.70;;
946;SDS011;460;48.734;9.152;2023-04-15T14:43:51;0.70;;;0.60;;
946;SDS011;460;48.734;9.152;2023-04-15T14:46:18;0.90;;;0.90;;
946;SDS011;460;48.734;9.152;2023-04-15T14:48:45;5.10;;;1.00;;
946;SDS011;460;48.734;9.152;2023-04-15T14:51:12;0.90;;;0.90;;
946;SDS011;460;48.734;9.152;2023-04-15T14:53:40;1.27;;;1.03;;
946;SDS011;460;48.734;9.152;2023-04-15T14:56:07;1.00;;;0.60;;
946;SDS011;460;48.734;9.152;2023-04-15T14:58:34;1.53;;;0.80;;
946;SDS011;460;48.734;9.152;2023-04-15T15:01:01;1.43;;;1.33;;
946;SDS011;460;48.734;9.152;2023-04-15T15:03:28;0.67;;;0.60;;
946;SDS011;460;48.734;9.152;2023-04-15T15:05:55;1.73;;;1.63;;
946;SDS011;460;48.734;9.152;2023-04-15T15:08:22;0.57;;;0.50;;
946;SDS011;460;48.734;9.152;2023-04-15T15:10:50;4.57;;;3.40;;
946;SDS011;460;48.734;9.152;2023-04-15T15:13:17;1.17;;;1.07;;
946;SDS011;460;48.734;9.152;2023-04-15T15:15:44;1.07;;;0.87;;
946;SDS011;460;48.734;9.152;2023-04-15T15:18:13;0.70;;;0.50;;
946;SDS011;460;48.734;9.152;2023-04-15T15:20:40;0.90;;;0.60;;
946;SDS011;460;48.734;9.152;2023-04-15T15:23:07;0.70;;;0.60;;
946;SDS011;460;48.734;9.152;2023-04-15T15:25:34;1.13;;;0.53;;
946;SDS011;460;48.734;9.152;2023-04-15T15:28:02;0.90;;;0.73;;
946;SDS011;460;48.734;9.152;2023-04-15T15:30:29;1.17;;;0.93;;
946;SDS011;460;48.734;9.152;2023-04-15T15:32:56;0.70;;;0.70;;
946;SDS011;460;48.734;9.152;2023-04-15T15:35:24;2.00;;;0.90;;
946;SDS011;460;48.734;9.152;2023-04-15T15:37:51;1.00;;;1.00;;
946;SDS011;460;48.734;9.152;2023-04-15T15:40:18;0.60;;;0.60;;
946;SDS011;460;48.734;9.152;2023-04-15T15:42:45;1.10;;;1.00;;
946;SDS011;460;48.734;9.152;2023-04-15T15:45:15;0.67;;;0.53;;
946;SDS011;460;48.734;9.152;2023-04-15T15:47:42;0.60;;;0.53;;
946;SDS011;460;48.734;9.152;2023-04-15T15:50:09;0.97;;;0.80;;
946;SDS011;460;48.734;9.152;2023-04-15T15:52:36;1.07;;;0.93;;
946;SDS011;460;48.734;9.152;2023-04-15T15:55:03;0.70;;;0.70;;
946;SDS011;460;48.734;9.152;2023-04-15T15:57:31;1.77;;;1.20;;